^^

METAR Μετεωρολογικών Σταθμών

Κεντρική, Δυτική και Νότια Ελλάδα


 Τι είναι το METAR ??? 

Πρώτος είναι ο πλησιέστερος Μετεωρολογικός Σταθμός (Μέτσοβο 176χλμ)
και τέλος ο πιο απομακρυσμένος (Αγιος Νικόλαος 454χλμ).
Επίσης μερικές αναφορές, παρουσιάζουν λιγότερα στοιχεία γιατί
οι αρχικές είναι ελλιπείς ή έχουν λάθος μορφοποίηση.
Πηγαίνετε στις Αναφορές METAR από Αεροδρόμια )  
Επιλέξτε Τμήμα:  Βόρεια Ελλάδα  -  Κεντρική, Δυτική & Νότια Ελλάδα  -  Νησιά Αγαίου & Κρήτη
Αλφαβητική Λίστα Γρήγορης Μετάβασης στούς 88 Μετεωρολογικούς Σταθμούς
Σύμφωνα με την διοικητική διαίρεση κατά το «Πρόγραμμα Καλλικράτης»
Αττική  (Α. Αττική: Αγιος Στέφανος  Βάρκιζα  Κερατέα  Λαύριο  Μαραθώνας  Νέα Μάκρη  Πόρτο Ράφτη  Ρέα  Σπάτα) (Δ. Αττική: Βίλια)
(Β. Αθήνα: Αγία Παρασκευή  Νέα Ερυθραία  Νταού) (Δ. Αθήνα: Περιστέρι) (Κ. Αθήνα: Αθήνα-Γκάζι) (Νησιά: Σαλαμίνα  Ύδρα) (Πειραιάς: Πειραιάς)
Δυτική Ελλάδα  (Αιτωλοακαρνανία: Αιτωλικό  Αγρίνιο  Γαβαλού  Κάτω Χώρα  Ναύπακτος) (Αχαΐα: Αίγιο  Βαθιά Λάκκα  Λάππας  Πάτρα-Κέντρο  Ρίο  Σκεπαστό) (Ηλεία: Αμαλιάδα  Αρχαία Ολυμπία  Ζαχάρω  Κατάκολο  Πύργος-Νεάπολη  Φολόη-Λάλας)
Ήπειρος  (Αρτα: Βλαχέρνα  Κομπότι) (Θεσπρωτία: Ηγουμενίτσα) (Ιωάννινα: Δωδώνη  Ιωάννινα  Μέτσοβο  Τρίστενο) (Πρέβεζα: Πάργα  Πρέβεζα)
Ιόνιοι Νήσοι  (Ζάκυνθος: Ζάκυνθος  Σαρακηνάδο) (Ιθάκη: Ιθάκη) (Κέρκυρα: Γάιος  Γουβιά  Κέρκυρα) (Κεφαλονιά: Σπαρτιά  Φαρακλάτα)
(Λευκάδα: Λευκάδα)
Κεντρική Ελλάδα  (Βοιωτία: Αντίκυρα  Αράχωβα  Καπαρέλλι  Κωπαΐδα  Λιβαδειά  Τανάγρα) (Εύβοια: Ιστιαία  Πρίνια-Κάβο Ντόρο  Σκύρος  Στενή  Χαλκίδα) (Ευρυτανία: Ποταμιάς Βουτύρου) (Φθιώτιδα: Αμφίκλεια  Καμένα Βούρλα  Λαμία  Παρνασσός-Χιον/κό Κέντρο) (Φωκίδα: Διακόπι  Μαυρολιθάρι  Μόρνος-Φράγμα)
Πελοπόννησος  (Αργολίδα: Κρανίδι  Ναύπλιο) (Αρκαδία: Ελάτη  Νεοχώρι  Τρίπολη) (Κορινθία: Νεμέα) (Λακωνία: Αγιος Νικόλαος  Μολάοι  Μονεμβασιά  Σπάρτη) (Μεσσηνία: Γαργαλιάνοι  Καλαμάτα  Κορομηλιά  Νέδουσα  Πύλος  Ταΰγετος-Βουνό)
(Ι.Μ.Σ.)Ιδιωτικός Μετεωρολογικός Σταθμός - (Ε.Α.Α.)Εθνικό Αστεροσκοπείο Αθηνών - (S.R.F.)Snow Report Forum
(Ε.Α.Α.)  LGO8 - Μέτσοβο  (Σταθμός:1348)
Μέτσοβο - Ιωάννινα - Ήπειρος
Γ.Πλάτ: 39.77 - Γ.Μήκ: 21.18 - Υψόμ: 1240μ
Απόσταση από το Vouhead Weather: (ΔΝΔ) 176χλμ
Ενημερώθηκε: 08/05/2022 00:51
ΜΗ ΠΡΟΣΦΑΤΟ METAR
Μερικώς νεφελώδης
Μερικώς νεφελώδης
 Άνεμος από Α
Άνεμος: Α 2 χΑω
Θερμοκρασία: 7°C
Σημ. Δρόσου: 4°C
Υγρασία: 81%
Βαρόμετρο: 1019 hPa
Σύννεφα: Μερικώς νεφελώδης
Ορατότητα: 8 χλμ
Ανάλυση νέφωσης: Μερικώς νεφελώδης 366μ
2022/05/07 21:51 1348 072151Z 09001KT 8000 SCT012 07/04 Q1019
(Ι.Μ.Σ.)  Ιστιαία  (Σταθμός:1171)
Ιστιαία Αιδηψός - Εύβοια - Κ. Ελλάδα
Γ.Πλάτ: 38.95 - Γ.Μήκ: 23.16 - Υψόμ: 52μ
Απόσταση από το Vouhead Weather: (Ν) 180χλμ
Ενημερώθηκε: 21/01/2022 19:21
ΜΗ ΠΡΟΣΦΑΤΟ METAR
Μερικώς νεφελώδης
Μερικώς νεφελώδης
 Άνεμος από ΑΝΑ
Άνεμος: ΑΝΑ 4 χΑω
Θερμοκρασία: 11°C
Σημ. Δρόσου: 6°C
Υγρασία: 72%
Βαρόμετρο: 1016 hPa
Σύννεφα: Μερικώς νεφελώδης
Ορατότητα: 8 χλμ
Ανάλυση νέφωσης: Μερικώς νεφελώδης 488μ
2022/01/21 17:21 1171 211721Z 11202KT 8000 SCT016 11/06 Q1016
 
(Ε.Α.Α.)  LGD0 - Τρίστενο  (Σταθμός:1177)
(Ζαγοροχώρια)
Ζαγόρι - Ιωάννινα - Ήπειρος
Γ.Πλάτ: 39.80 - Γ.Μήκ: 21.00 - Υψόμ: 950μ
Απόσταση από το Vouhead Weather: (ΔΝΔ) 189χλμ
Ενημερώθηκε: 10/01/2019 18:19
ΜΗ ΠΡΟΣΦΑΤΟ METAR
Καταιγίδα, Μερικώς νεφελώδης
Καταιγίδα, Μερικώς νεφελώδης
 Άνεμος από calm
Άνεμος: Απνοια
Θερμοκρασία: 2°C
Σημ. Δρόσου: 2°C
Υγρασία: 100%
Βαρόμετρο: 1002 hPa
Περίληψη: Καταιγίδα
Σύννεφα: Μερικώς νεφελώδης
Ορατότητα: 6 χλμ
Ανάλυση νέφωσης: Μερικώς νεφελώδης 610μ
2019/01/10 16:19 1177 101619Z 00000KT 6000 TS SCT020 02/02 Q1002
(Ι.Μ.Σ.)  Λαμία  (Σταθμός:1121)
Λαμία - Φθιώτιδα - Κ. Ελλάδα
Γ.Πλάτ: 38.90 - Γ.Μήκ: 22.43 - Υψόμ: 170μ
Απόσταση από το Vouhead Weather: (ΝΝΔ) 190χλμ
Ενημερώθηκε: 02/11/2017 14:04
ΜΗ ΠΡΟΣΦΑΤΟ METAR
Αίθριος
Αίθριος
 Άνεμος από Ν
Άνεμος: Ν 4 χΑω
Θερμοκρασία: 16°C
Σημ. Δρόσου: 7°C
Υγρασία: 55%
Βαρόμετρο: 1020 hPa
Σύννεφα: Αίθριος
Ορατότητα: 10 χλμ
2017/11/02 12:04 1121 021204Z 18002KT 9999 SKC 16/07 Q1020
 
(Ι.Μ.Σ.)  Καμένα Βούρλα  (Σταθμός:1125)
Μώλος Αγιος Κωνσταντίνος - Φθιώτιδα - Κ. Ελλάδα
Γ.Πλάτ: 38.80 - Γ.Μήκ: 22.72 - Υψόμ: 35μ
Απόσταση από το Vouhead Weather: (Ν) 199χλμ
Ενημερώθηκε: 08/11/2019 09:49
ΜΗ ΠΡΟΣΦΑΤΟ METAR
Αίθριος
Αίθριος
 Άνεμος από Ν
Άνεμος: Ν 4 χΑω
Θερμοκρασία: 16°C
Σημ. Δρόσου: 14°C
Υγρασία: 88%
Βαρόμετρο: 1011 hPa
Σύννεφα: Αίθριος
Ορατότητα: 7 χλμ
2019/11/08 07:49 1125 080749Z 18002KT 7000 SKC 16/14 Q1011
(Ε.Α.Α.)  LG49 - Ιωάννινα  (Σταθμός:1007)
Ιωάννινα - Ιωάννινα - Ήπειρος
Γ.Πλάτ: 39.63 - Γ.Μήκ: 20.85 - Υψόμ: 475μ
Απόσταση από το Vouhead Weather: (ΔΝΔ) 207χλμ
Ενημερώθηκε: 19/06/2019 20:34
ΜΗ ΠΡΟΣΦΑΤΟ METAR
Μερικώς νεφελώδης
Μερικώς νεφελώδης
 Άνεμος από ΔΒΔ
Άνεμος: ΔΒΔ 4 χΑω
Θερμοκρασία: 27°C
Δείκτης Δυσφορίας: 28°C
Σημ. Δρόσου: 16°C
Υγρασία: 51%
Βαρόμετρο: 1010 hPa
Σύννεφα: Μερικώς νεφελώδης
Ορατότητα: 10 χλμ
Ανάλυση νέφωσης: Μερικώς νεφελώδης 1311μ
2019/06/19 17:34 1007 191734Z 29202KT 9999 SCT043 27/16 Q1010
 
(Ι.Μ.Σ.)  Αμφίκλεια  (Σταθμός:1175)
Αμφίκλεια Ελάτεια - Φθιώτιδα - Κ. Ελλάδα
Γ.Πλάτ: 38.69 - Γ.Μήκ: 22.60 - Υψόμ: 450μ
Απόσταση από το Vouhead Weather: (ΝΝΔ) 216χλμ
Ενημερώθηκε: 15/05/2018 14:49
ΜΗ ΠΡΟΣΦΑΤΟ METAR
Μερικώς νεφελώδης
Μερικώς νεφελώδης
 Άνεμος από ΒΒΑ
Άνεμος: ΒΒΑ 2 χΑω
Θερμοκρασία: 26°C
Σημ. Δρόσου: 12°C
Υγρασία: 42%
Βαρόμετρο: 1014 hPa
Σύννεφα: Μερικώς νεφελώδης
Ορατότητα: 10 χλμ
Ανάλυση νέφωσης: Μερικώς νεφελώδης 1676μ
2018/05/15 11:49 1175 151149Z 02201KT 9999 SCT055 26/12 Q1014
(Ε.Α.Α.)  LG** - Δωδώνη  (Σταθμός:1008)
Δωδώνη - Ιωάννινα - Ήπειρος
Γ.Πλάτ: 39.56 - Γ.Μήκ: 20.79 - Υψόμ: 675μ
Απόσταση από το Vouhead Weather: (ΔΝΔ) 218χλμ
Ενημερώθηκε: 02/10/2018 03:34
ΜΗ ΠΡΟΣΦΑΤΟ METAR
Αίθριος
Αίθριος
 Άνεμος από ΒΑ
Άνεμος: ΒΑ 2 χΑω
Θερμοκρασία: 11°C
Σημ. Δρόσου: 9°C
Υγρασία: 88%
Βαρόμετρο: 1014 hPa
Σύννεφα: Αίθριος
Ορατότητα: 7 χλμ
2018/10/02 00:34 1008 020034Z 04501KT 7000 SKC 11/09 Q1014
 
(Ε.Α.Α.)  LGA6 - Μαυρολιθάρι  (Σταθμός:1129)
Δελφοί - Φωκίδα - Κ. Ελλάδα
Γ.Πλάτ: 38.67 - Γ.Μήκ: 22.26 - Υψόμ: 1220μ
Απόσταση από το Vouhead Weather: (ΝΝΔ) 219χλμ
Ενημερώθηκε: 02/11/2017 12:49
ΜΗ ΠΡΟΣΦΑΤΟ METAR
Διάσπαρτα νέφη
Διάσπαρτα νέφη
 Άνεμος από ΑΝΑ
Άνεμος: ΑΝΑ 7 χΑω
Θερμοκρασία: 9°C
Ψυχρότητα Ανέμου: 8°C
Σημ. Δρόσου: 5°C
Υγρασία: 76%
Βαρόμετρο: 1027 hPa
Σύννεφα: Διάσπαρτα νέφη
Ορατότητα: 8 χλμ
Ανάλυση νέφωσης: Διάσπαρτα νέφη 427μ
2017/11/02 10:49 1129 021049Z 11204KT 8000 FEW014 09/05 Q1027
(Ε.Α.Α.)  LGC9 - Ποταμιάς Βουτύρου  (Σταθμός:1160)
Καρπενήσι - Ευρυτανία - Κ. Ελλάδα
Γ.Πλάτ: 38.83 - Γ.Μήκ: 21.74 - Υψόμ: 690μ
Απόσταση από το Vouhead Weather: (ΝΝΔ) 221χλμ
Ενημερώθηκε: 02/11/2017 14:04
ΜΗ ΠΡΟΣΦΑΤΟ METAR
Μερικώς νεφελώδης
Μερικώς νεφελώδης
 Άνεμος από ΝΝΔ
Άνεμος: ΝΝΔ 4 χΑω
Θερμοκρασία: 17°C
Σημ. Δρόσου: 6°C
Υγρασία: 49%
Βαρόμετρο: 1020 hPa
Σύννεφα: Μερικώς νεφελώδης
Ορατότητα: 10 χλμ
Ανάλυση νέφωσης: Μερικώς νεφελώδης 1250μ
2017/11/02 12:04 1160 021204Z 20202KT 9999 SCT041 17/06 Q1020
 
(Ε.Α.Α.)  LGF9 - Παρνασσός  (Σταθμός:1250)
(Χιονοδρομικό Κέντρο)
Αμφίκλεια Ελάτεια - Φθιώτιδα - Κ. Ελλάδα
Γ.Πλάτ: 38.52 - Γ.Μήκ: 22.61 - Υψόμ: 1950μ
Απόσταση από το Vouhead Weather: (ΝΝΔ) 227χλμ
Ενημερώθηκε: 02/11/2017 14:04
ΜΗ ΠΡΟΣΦΑΤΟ METAR
Μερικώς νεφελώδης
Μερικώς νεφελώδης
 Άνεμος από Α
Άνεμος: Α 4 χΑω
Θερμοκρασία: 5°C
Σημ. Δρόσου: 1°C
Υγρασία: 76%
Βαρόμετρο: 1022 hPa
Σύννεφα: Μερικώς νεφελώδης
Ορατότητα: 9 χλμ
Ανάλυση νέφωσης: Μερικώς νεφελώδης 457μ
2017/11/02 12:04 1250 021204Z 09002KT 9000 SCT015 05/01 Q1022
(Ε.Α.Α.)  LG38 - Βλαχέρνα  (Σταθμός:1004)
Αρτα - Αρτα - Ήπειρος
Γ.Πλάτ: 39.17 - Γ.Μήκ: 21.00 - Υψόμ: 50μ
Απόσταση από το Vouhead Weather: (ΝΔ) 229χλμ
Ενημερώθηκε: 19/05/2022 08:23
ΜΗ ΠΡΟΣΦΑΤΟ METAR
Μερικώς νεφελώδης
Μερικώς νεφελώδης
 Άνεμος από ΒΒΔ
Άνεμος: ΒΒΔ 2 χΑω
Θερμοκρασία: 17°C
Σημ. Δρόσου: 7°C
Υγρασία: 52%
Βαρόμετρο: 1022 hPa
Σύννεφα: Μερικώς νεφελώδης
Ορατότητα: 10 χλμ
Ανάλυση νέφωσης: Μερικώς νεφελώδης 1219μ
2022/05/19 05:23 1004 190523Z 33701KT 9999 SCT040 17/07 Q1022
 
(Ε.Α.Α.)  LGD2 - Κομπότι  (Σταθμός:1164)
Νικόλαος Σκουφάς - Αρτα - Ήπειρος
Γ.Πλάτ: 39.10 - Γ.Μήκ: 21.08 - Υψόμ: 75μ
Απόσταση από το Vouhead Weather: (ΝΔ) 230χλμ
Ενημερώθηκε: 18/07/2021 06:08
ΜΗ ΠΡΟΣΦΑΤΟ METAR
Διάσπαρτα νέφη
Διάσπαρτα νέφη
 Άνεμος από calm
Άνεμος: Απνοια
Θερμοκρασία: 22°C
Σημ. Δρόσου: 17°C
Υγρασία: 73%
Βαρόμετρο: 1002 hPa
Σύννεφα: Διάσπαρτα νέφη
Ορατότητα: 8 χλμ
Ανάλυση νέφωσης: Διάσπαρτα νέφη 610μ
2021/07/18 03:08 1164 180308Z 00000KT 8000 FEW020 22/17 Q1002
(Ε.Α.Α.)  LG** - Διακόπι  (Σταθμός:1066)
Δωρίδα - Φωκίδα - Κ. Ελλάδα
Γ.Πλάτ: 38.58 - Γ.Μήκ: 22.12 - Υψόμ: 665μ
Απόσταση από το Vouhead Weather: (ΝΝΔ) 231χλμ
Ενημερώθηκε: 27/07/2017 16:19
ΜΗ ΠΡΟΣΦΑΤΟ METAR
Μερικώς νεφελώδης
Μερικώς νεφελώδης
 Άνεμος από calm
Άνεμος: Απνοια
Θερμοκρασία: 25°C
Σημ. Δρόσου: 15°C
Υγρασία: 54%
Βαρόμετρο: 1004 hPa
Σύννεφα: Μερικώς νεφελώδης
Ορατότητα: 10 χλμ
Ανάλυση νέφωσης: Μερικώς νεφελώδης 1128μ
2017/07/27 13:19 1066 271319Z 00000KT 9999 SCT037 25/15 Q1004
 
(Ε.Α.Α.)  LG81 - Στενή  (Σταθμός:1091)
Ιστιαία Αιδηψός - Εύβοια - Κ. Ελλάδα
Γ.Πλάτ: 38.58 - Γ.Μήκ: 23.83 - Υψόμ: 450μ
Απόσταση από το Vouhead Weather: (ΝΝΑ) 233χλμ
Ενημερώθηκε: 31/10/2017 12:34
ΜΗ ΠΡΟΣΦΑΤΟ METAR
Μερικώς νεφελώδης
Μερικώς νεφελώδης
 Άνεμος από ΒΑ
Άνεμος: ΒΑ 13 χΑω
Θερμοκρασία: 13°C
Σημ. Δρόσου: 6°C
Υγρασία: 63%
Βαρόμετρο: 1022 hPa
Σύννεφα: Μερικώς νεφελώδης
Ορατότητα: 10 χλμ
Ανάλυση νέφωσης: Μερικώς νεφελώδης 884μ
2017/10/31 10:34 1091 311034Z 04507KT 9999 SCT029 13/06 Q1022
(Ε.Α.Α.)  LGC5 - Αράχωβα  (Σταθμός:1155)
Δίστομο Αράχωβα Αντίκυρα - Βοιωτία - Κ. Ελλάδα
Γ.Πλάτ: 38.49 - Γ.Μήκ: 22.59 - Υψόμ: 1075μ
Απόσταση από το Vouhead Weather: (ΝΝΔ) 234χλμ
Ενημερώθηκε: 02/11/2017 14:04
ΜΗ ΠΡΟΣΦΑΤΟ METAR
Διάσπαρτα νέφη
Διάσπαρτα νέφη
 Άνεμος από ΑΝΑ
Άνεμος: ΑΝΑ 9 χΑω
Θερμοκρασία: 11°C
Σημ. Δρόσου: 6°C
Υγρασία: 72%
Βαρόμετρο: 1023 hPa
Σύννεφα: Διάσπαρτα νέφη
Ορατότητα: 9 χλμ
Ανάλυση νέφωσης: Διάσπαρτα νέφη 549μ
2017/11/02 12:04 1155 021204Z 11205KT 9000 FEW018 11/06 Q1023
 
(Ε.Α.Α.)  LGI1 - Σκύρος  (Σταθμός:1268)
Σκύρος - Εύβοια - Κ. Ελλάδα
Γ.Πλάτ: 38.84 - Γ.Μήκ: 24.54 - Υψόμ: 8μ
Απόσταση από το Vouhead Weather: (ΝΝΑ) 235χλμ
Ενημερώθηκε: 02/11/2017 14:04
ΜΗ ΠΡΟΣΦΑΤΟ METAR
Μερικώς νεφελώδης
Μερικώς νεφελώδης
 Άνεμος από Β
Άνεμος: Β 7 χΑω
Θερμοκρασία: 15°C
Σημ. Δρόσου: 9°C
Υγρασία: 68%
Βαρόμετρο: 1021 hPa
Σύννεφα: Μερικώς νεφελώδης
Ορατότητα: 9 χλμ
Ανάλυση νέφωσης: Μερικώς νεφελώδης 762μ
2017/11/02 12:04 1268 021204Z 36004KT 9000 SCT025 15/09 Q1021
(Ε.Α.Α.)  LGH8 - Κάτω Χώρα  (Σταθμός:1211)
Ναυπακτία - Αιτωλοακαρνανία - Δ. Ελλάδα
Γ.Πλάτ: 38.59 - Γ.Μήκ: 21.95 - Υψόμ: 902μ
Απόσταση από το Vouhead Weather: (ΝΝΔ) 236χλμ
Ενημερώθηκε: 25/10/2017 12:19
ΜΗ ΠΡΟΣΦΑΤΟ METAR
Μερικώς νεφελώδης
Μερικώς νεφελώδης
 Άνεμος από Α
Άνεμος: Α 4 χΑω
Θερμοκρασία: 11°C
Σημ. Δρόσου: 6°C
Υγρασία: 72%
Βαρόμετρο: 1014 hPa
Σύννεφα: Μερικώς νεφελώδης
Ορατότητα: 9 χλμ
Ανάλυση νέφωσης: Μερικώς νεφελώδης 579μ
2017/10/25 09:19 1211 250919Z 09002KT 9000 SCT019 11/06 Q1014
 
(Ε.Α.Α.)  LGI8 - Λιβαδειά  (Σταθμός:1286)
Λιβαδειά - Βοιωτία - Κ. Ελλάδα
Γ.Πλάτ: 38.45 - Γ.Μήκ: 22.91 - Υψόμ: 120μ
Απόσταση από το Vouhead Weather: (Ν) 236χλμ
Ενημερώθηκε: 02/11/2017 14:04
ΜΗ ΠΡΟΣΦΑΤΟ METAR
Διάσπαρτα νέφη
Διάσπαρτα νέφη
 Άνεμος από ΑΒΑ
Άνεμος: ΑΒΑ 2 χΑω
Θερμοκρασία: 17°C
Σημ. Δρόσου: 7°C
Υγρασία: 52%
Βαρόμετρο: 1021 hPa
Σύννεφα: Διάσπαρτα νέφη
Ορατότητα: 10 χλμ
Ανάλυση νέφωσης: Διάσπαρτα νέφη 1097μ
2017/11/02 12:04 1286 021204Z 06701KT 9999 FEW036 17/07 Q1021
(Ι.Μ.Σ.)  Κωπαΐδα  (Σταθμός:1323)
(Ιδιωτικό Αεροδρόμιο ΙΚΑΡΟΣ)
Ορχομενός - Βοιωτία - Κ. Ελλάδα
Γ.Πλάτ: 38.46 - Γ.Μήκ: 23.14 - Υψόμ: 95μ
Απόσταση από το Vouhead Weather: (Ν) 237χλμ
Ενημερώθηκε: 27/12/2015 22:20
ΜΗ ΠΡΟΣΦΑΤΟ METAR
Αίθριος
Αίθριος
 Άνεμος από Δ
Άνεμος: Δ 4 χΑω
Θερμοκρασία: 4°C
Σημ. Δρόσου: 2°C
Υγρασία: 87%
Βαρόμετρο: 1030 hPa
Σύννεφα: Αίθριος
Ορατότητα: 8 χλμ
2015/12/27 20:20 1323 272020Z 27002KT 8000 SKC 04/02 Q1030
 
(Ε.Α.Α.)  LG** - Φράγμα Μόρνου  (Σταθμός:1095)
Δωρίδα - Φωκίδα - Κ. Ελλάδα
Γ.Πλάτ: 38.52 - Γ.Μήκ: 22.12 - Υψόμ: 445μ
Απόσταση από το Vouhead Weather: (ΝΝΔ) 238χλμ
Ενημερώθηκε: 23/10/2017 15:19
ΜΗ ΠΡΟΣΦΑΤΟ METAR
Καταιγίδα, Ασθενής βροχή, Νεφοσκεπής
Καταιγίδα, Ασθενής βροχή, Νεφοσκεπής
 Άνεμος από ΑΒΑ
Άνεμος: ΑΒΑ 4 χΑω
Θερμοκρασία: 15°C
Σημ. Δρόσου: 12°C
Υγρασία: 82%
Βαρόμετρο: 1006 hPa
Περίληψη: Καταιγίδα, Ασθενής βροχή
Σύννεφα: Νεφοσκεπής
Ορατότητα: 9 χλμ
Ανάλυση νέφωσης: Νεφοσκεπής 366μ
2017/10/23 12:19 1095 231219Z 06702KT 9000 TS -RA OVC012 15/12 Q1006
(Ε.Α.Α.)  LGO3 - Χαλκίδα  (Σταθμός:1271)
Χαλκίδα - Εύβοια - Κ. Ελλάδα
Γ.Πλάτ: 38.46 - Γ.Μήκ: 23.65 - Υψόμ: 200μ
Απόσταση από το Vouhead Weather: (ΝΝΑ) 240χλμ
Ενημερώθηκε: 02/11/2017 14:04
ΜΗ ΠΡΟΣΦΑΤΟ METAR
Μερικώς νεφελώδης
Μερικώς νεφελώδης
 Άνεμος από ΔΒΔ
Άνεμος: ΔΒΔ 11 χΑω
Θερμοκρασία: 15°C
Σημ. Δρόσου: 9°C
Υγρασία: 68%
Βαρόμετρο: 1019 hPa
Σύννεφα: Μερικώς νεφελώδης
Ορατότητα: 9 χλμ
Ανάλυση νέφωσης: Μερικώς νεφελώδης 762μ
2017/11/02 12:04 1271 021204Z 29206KT 9000 SCT025 15/09 Q1019
 
(Ε.Α.Α.)  LGG8 - Αντίκυρα  (Σταθμός:1219)
Δίστομο Αράχωβα Αντίκυρα - Βοιωτία - Κ. Ελλάδα
Γ.Πλάτ: 38.38 - Γ.Μήκ: 22.63 - Υψόμ: 336μ
Απόσταση από το Vouhead Weather: (ΝΝΔ) 245χλμ
Ενημερώθηκε: 02/11/2017 14:04
ΜΗ ΠΡΟΣΦΑΤΟ METAR
Αίθριος
Αίθριος
 Άνεμος από ΝΑ
Άνεμος: ΝΑ 13 χΑω
Θερμοκρασία: 15°C
Σημ. Δρόσου: 9°C
Υγρασία: 68%
Βαρόμετρο: 1019 hPa
Σύννεφα: Αίθριος
Ορατότητα: 9 χλμ
2017/11/02 12:04 1219 021204Z 13507KT 9000 SKC 15/09 Q1019
(Ε.Α.Α.)  LG69 - Τανάγρα  (Σταθμός:1092)
(Ελληνική Αεροπορική Βιομηχανία)
Τανάγρα - Βοιωτία - Κ. Ελλάδα
Γ.Πλάτ: 38.30 - Γ.Μήκ: 23.50 - Υψόμ: 140μ
Απόσταση από το Vouhead Weather: (ΝΝΑ) 252χλμ
Ενημερώθηκε: 02/11/2017 14:04
ΜΗ ΠΡΟΣΦΑΤΟ METAR
Διάσπαρτα νέφη
Διάσπαρτα νέφη
 Άνεμος από calm
Άνεμος: Απνοια
Θερμοκρασία: 17°C
Σημ. Δρόσου: 8°C
Υγρασία: 56%
Βαρόμετρο: 1021 hPa
Σύννεφα: Διάσπαρτα νέφη
Ορατότητα: 10 χλμ
Ανάλυση νέφωσης: Διάσπαρτα νέφη 1128μ
2017/11/02 12:04 1092 021204Z 00000KT 9999 FEW037 17/08 Q1021
 
(Ε.Α.Α.)  LGH9 - Αγρίνιο  (Σταθμός:1265)
(Πανεπιστήμιο Δυτικής Ελλάδας)
Αγρίνιο - Αιτωλοακαρνανία - Δ. Ελλάδα
Γ.Πλάτ: 38.61 - Γ.Μήκ: 21.42 - Υψόμ: 72μ
Απόσταση από το Vouhead Weather: (ΝΝΔ) 254χλμ
Ενημερώθηκε: 02/11/2017 14:04
ΜΗ ΠΡΟΣΦΑΤΟ METAR
Διάσπαρτα νέφη
Διάσπαρτα νέφη
 Άνεμος από Ν
Άνεμος: Ν 6 χΑω
Θερμοκρασία: 19°C
Σημ. Δρόσου: 11°C
Υγρασία: 60%
Βαρόμετρο: 1018 hPa
Σύννεφα: Διάσπαρτα νέφη
Ορατότητα: 10 χλμ
Ανάλυση νέφωσης: Διάσπαρτα νέφη 1036μ
2017/11/02 12:04 1265 021204Z 18003KT 9999 FEW034 19/11 Q1018
(Ε.Α.Α.)  LG43 - Ηγουμενίτσα  (Σταθμός:1006)
(Μαυρούδι - www.metar.gr)
Ηγουμενίτσα - Θεσπρωτία - Ήπειρος
Γ.Πλάτ: 39.54 - Γ.Μήκ: 20.28 - Υψόμ: 77μ
Απόσταση από το Vouhead Weather: (ΔΝΔ) 256χλμ
Ενημερώθηκε: 19/05/2022 08:23
ΜΗ ΠΡΟΣΦΑΤΟ METAR
Αίθριος
Αίθριος
 Άνεμος από ΒΑ
Άνεμος: ΒΑ 6 χΑω
Θερμοκρασία: 18°C
Σημ. Δρόσου: 8°C
Υγρασία: 52%
Βαρόμετρο: 1020 hPa
Σύννεφα: Αίθριος
Ορατότητα: 10 χλμ
2022/05/19 05:23 1006 190523Z 04503KT 9999 SKC 18/08 Q1020
 
(Ι.Μ.Σ.)  Γαβαλού  (Σταθμός:1159)
Αγρίνιο - Αιτωλοακαρνανία - Δ. Ελλάδα
Γ.Πλάτ: 38.54 - Γ.Μήκ: 21.53 - Υψόμ: 55μ
Απόσταση από το Vouhead Weather: (ΝΝΔ) 258χλμ
Ενημερώθηκε: 02/11/2017 14:04
ΜΗ ΠΡΟΣΦΑΤΟ METAR
Διάσπαρτα νέφη
Διάσπαρτα νέφη
 Άνεμος από calm
Άνεμος: Απνοια
Θερμοκρασία: 20°C
Σημ. Δρόσου: 11°C
Υγρασία: 56%
Βαρόμετρο: 1018 hPa
Σύννεφα: Διάσπαρτα νέφη
Ορατότητα: 10 χλμ
Ανάλυση νέφωσης: Διάσπαρτα νέφη 1067μ
2017/11/02 12:04 1159 021204Z 00000KT 9999 FEW035 20/11 Q1018
(Ι.Μ.Σ.)  Ναύπακτος  (Σταθμός:1090)
Ναυπακτία - Αιτωλοακαρνανία - Δ. Ελλάδα
Γ.Πλάτ: 38.40 - Γ.Μήκ: 21.83 - Υψόμ: 60μ
Απόσταση από το Vouhead Weather: (ΝΝΔ) 260χλμ
Ενημερώθηκε: 19/05/2022 08:23
ΜΗ ΠΡΟΣΦΑΤΟ METAR
Μερικώς νεφελώδης
Μερικώς νεφελώδης
 Άνεμος από Α
Άνεμος: Α 24 χΑω
Θερμοκρασία: 16°C
Σημ. Δρόσου: 8°C
Υγρασία: 59%
Βαρόμετρο: 1021 hPa
Σύννεφα: Μερικώς νεφελώδης
Ορατότητα: 10 χλμ
Ανάλυση νέφωσης: Μερικώς νεφελώδης 884μ
2022/05/19 05:23 1090 190523Z 09013KT 9999 SCT029 16/08 Q1021
 
(Ε.Α.Α.)  LGJ7 - Καπαρέλλι  (Σταθμός:1296)
Θήβα - Βοιωτία - Κ. Ελλάδα
Γ.Πλάτ: 38.24 - Γ.Μήκ: 23.21 - Υψόμ: 345μ
Απόσταση από το Vouhead Weather: (Ν) 261χλμ
Ενημερώθηκε: 02/11/2017 13:04
ΜΗ ΠΡΟΣΦΑΤΟ METAR
Αίθριος
Αίθριος
 Άνεμος από Β
Άνεμος: Β 4 χΑω
Θερμοκρασία: 14°C
Σημ. Δρόσου: 7°C
Υγρασία: 63%
Βαρόμετρο: 1023 hPa
Σύννεφα: Αίθριος
Ορατότητα: 10 χλμ
2017/11/02 11:04 1296 021104Z 36002KT 9999 SKC 14/07 Q1023
(Ε.Α.Α.)  LGK1 - Πρέβεζα  (Σταθμός:1305)
Πρέβεζα - Πρέβεζα - Ήπειρος
Γ.Πλάτ: 38.98 - Γ.Μήκ: 20.72 - Υψόμ: 12μ
Απόσταση από το Vouhead Weather: (ΝΔ) 261χλμ
Ενημερώθηκε: 02/11/2017 14:04
ΜΗ ΠΡΟΣΦΑΤΟ METAR
Αίθριος
Αίθριος
 Άνεμος από Β
Άνεμος: Β 2 χΑω
Θερμοκρασία: 20°C
Σημ. Δρόσου: 13°C
Υγρασία: 64%
Βαρόμετρο: 1020 hPa
Σύννεφα: Αίθριος
Ορατότητα: 9 χλμ
2017/11/02 12:04 1305 021204Z 36001KT 9000 SKC 20/13 Q1020
 
(Ε.Α.Α.)  LGK9 - Πάργα  (Σταθμός:1217)
Πάργα - Πρέβεζα - Ήπειρος
Γ.Πλάτ: 39.28 - Γ.Μήκ: 20.41 - Υψόμ: 8μ
Απόσταση από το Vouhead Weather: (ΔΝΔ) 262χλμ
Ενημερώθηκε: 08/05/2022 00:51
ΜΗ ΠΡΟΣΦΑΤΟ METAR
Αίθριος
Αίθριος
 Άνεμος από ΔΝΔ
Άνεμος: ΔΝΔ 2 χΑω
Θερμοκρασία: 17°C
Σημ. Δρόσου: 11°C
Υγρασία: 68%
Βαρόμετρο: 1017 hPa
Σύννεφα: Αίθριος
Ορατότητα: 9 χλμ
2022/05/07 21:51 1217 072151Z 24701KT 9000 SKC 17/11 Q1017
(Ε.Α.Α.)  LG** - Βίλια  (Σταθμός:1401)
Βίλια - Δ. Αττική - Αττική
Γ.Πλάτ: 38.17 - Γ.Μήκ: 23.34 - Υψόμ: 523μ
Απόσταση από το Vouhead Weather: (ΝΝΑ) 268χλμ
Ενημερώθηκε: 02/11/2017 14:04
ΜΗ ΠΡΟΣΦΑΤΟ METAR
Διάσπαρτα νέφη
Διάσπαρτα νέφη
 Άνεμος από Β
Άνεμος: Β 11 χΑω
Θερμοκρασία: 14°C
Σημ. Δρόσου: 5°C
Υγρασία: 55%
Βαρόμετρο: 1020 hPa
Σύννεφα: Διάσπαρτα νέφη
Ορατότητα: 10 χλμ
Ανάλυση νέφωσης: Διάσπαρτα νέφη 1097μ
2017/11/02 12:04 1401 021204Z 36006KT 9999 FEW036 14/05 Q1020
 
(Ι.Μ.Σ.)  Αίγιο  (Σταθμός:1115)
Αιγιάλεια - Αχαΐα - Δ. Ελλάδα
Γ.Πλάτ: 38.25 - Γ.Μήκ: 22.08 - Υψόμ: 68μ
Απόσταση από το Vouhead Weather: (ΝΝΔ) 269χλμ
Ενημερώθηκε: 18/03/2017 06:49
ΜΗ ΠΡΟΣΦΑΤΟ METAR
Μερικώς νεφελώδης
Μερικώς νεφελώδης
 Άνεμος από calm
Άνεμος: Απνοια
Θερμοκρασία: 8°C
Σημ. Δρόσου: 5°C
Υγρασία: 82%
Βαρόμετρο: 1019 hPa
Σύννεφα: Μερικώς νεφελώδης
Ορατότητα: 8 χλμ
Ανάλυση νέφωσης: Μερικώς νεφελώδης 427μ
2017/03/18 04:49 1115 180449Z 00000KT 8000 SCT014 08/05 Q1019
(Ε.Α.Α.)  LGH8 - Ρίο  (Σταθμός:1264)
Πάτρα - Αχαΐα - Δ. Ελλάδα
Γ.Πλάτ: 38.31 - Γ.Μήκ: 21.78 - Υψόμ: 6μ
Απόσταση από το Vouhead Weather: (ΝΝΔ) 271χλμ
Ενημερώθηκε: 02/11/2017 09:04
ΜΗ ΠΡΟΣΦΑΤΟ METAR
Διάσπαρτα νέφη
Διάσπαρτα νέφη
 Άνεμος από ΒΑ
Άνεμος: ΒΑ 11 χΑω
Θερμοκρασία: 14°C
Σημ. Δρόσου: 9°C
Υγρασία: 72%
Βαρόμετρο: 1022 hPa
Σύννεφα: Διάσπαρτα νέφη
Ορατότητα: 8 χλμ
Ανάλυση νέφωσης: Διάσπαρτα νέφη 579μ
2017/11/02 07:04 1264 020704Z 04506KT 8000 FEW019 14/09 Q1022
 
(Ε.Α.Α.)  LGI7 - Λευκάδα  (Σταθμός:1283)
Λευκάδα - Λευκάδα - Ιόνιοι Νήσοι
Γ.Πλάτ: 38.83 - Γ.Μήκ: 20.71 - Υψόμ: 12μ
Απόσταση από το Vouhead Weather: (ΝΔ) 273χλμ
Ενημερώθηκε: 08/05/2022 00:51
ΜΗ ΠΡΟΣΦΑΤΟ METAR
Διάσπαρτα νέφη
Διάσπαρτα νέφη
 Άνεμος από ΔΝΔ
Άνεμος: ΔΝΔ 2 χΑω
Θερμοκρασία: 17°C
Σημ. Δρόσου: 14°C
Υγρασία: 83%
Βαρόμετρο: 1016 hPa
Σύννεφα: Διάσπαρτα νέφη
Ορατότητα: 7 χλμ
Ανάλυση νέφωσης: Διάσπαρτα νέφη 305μ
2022/05/07 21:51 1283 072151Z 24701KT 7000 FEW010 17/14 Q1016
(Ε.Α.Α.)  LGC7 - Αιτωλικό  (Σταθμός:1157)
Μεσολόγγι - Αιτωλοακαρνανία - Δ. Ελλάδα
Γ.Πλάτ: 38.44 - Γ.Μήκ: 21.35 - Υψόμ: 3μ
Απόσταση από το Vouhead Weather: (ΝΝΔ) 274χλμ
Ενημερώθηκε: 02/11/2017 14:04
ΜΗ ΠΡΟΣΦΑΤΟ METAR
Αίθριος
Αίθριος
 Άνεμος από Ν
Άνεμος: Ν 2 χΑω
Θερμοκρασία: 18°C
Σημ. Δρόσου: 12°C
Υγρασία: 68%
Βαρόμετρο: 1019 hPa
Σύννεφα: Αίθριος
Ορατότητα: 9 χλμ
2017/11/02 12:04 1157 021204Z 18001KT 9000 SKC 18/12 Q1019
 
(Ι.Μ.Σ.)  Πάτρα(Κέντρο)  (Σταθμός:1365)
Πάτρα - Αχαΐα - Δ. Ελλάδα
Γ.Πλάτ: 38.25 - Γ.Μήκ: 21.74 - Υψόμ: 40μ
Απόσταση από το Vouhead Weather: (ΝΝΔ) 278χλμ
Ενημερώθηκε: 12/07/2021 09:06
ΜΗ ΠΡΟΣΦΑΤΟ METAR
Αίθριος
Αίθριος
 Άνεμος από calm
Άνεμος: Απνοια
Θερμοκρασία: 26°C
Σημ. Δρόσου: 13°C
Υγρασία: 45%
Βαρόμετρο: 1009 hPa
Σύννεφα: Αίθριος
Ορατότητα: 10 χλμ
2021/07/12 06:06 1365 120606Z 00000KT 9999 SKC 26/13 Q1009
(Ι.Μ.Σ.)  Αγιος Στέφανος  (Σταθμός:1098)
Διόνυσος - Α. Αττική - Αττική
Γ.Πλάτ: 38.15 - Γ.Μήκ: 23.86 - Υψόμ: 380μ
Απόσταση από το Vouhead Weather: (ΝΝΑ) 280χλμ
Ενημερώθηκε: 11/05/2022 18:51
ΜΗ ΠΡΟΣΦΑΤΟ METAR
Διάσπαρτα νέφη
Διάσπαρτα νέφη
 Άνεμος από ΒΑ
Άνεμος: ΒΑ 2 χΑω
Θερμοκρασία: 22°C
Σημ. Δρόσου: 8°C
Υγρασία: 41%
Βαρόμετρο: 1020 hPa
Σύννεφα: Διάσπαρτα νέφη
Ορατότητα: 10 χλμ
Ανάλυση νέφωσης: Διάσπαρτα νέφη 1585μ
2022/05/11 15:51 1098 111551Z 04501KT 9999 FEW052 22/08 Q1020
 
(Ι.Μ.Σ.)  Κέρκυρα  (Σταθμός:1363)
Κέρκυρα - Κέρκυρα - Ιόνιοι Νήσοι
Γ.Πλάτ: 39.62 - Γ.Μήκ: 19.92 - Υψόμ: 23μ
Απόσταση από το Vouhead Weather: (ΔΝΔ) 281χλμ
Ενημερώθηκε: 09/09/2020 13:35
ΜΗ ΠΡΟΣΦΑΤΟ METAR
Νεφοσκεπής
Νεφοσκεπής
 Άνεμος από ΔΒΔ
Άνεμος: ΔΒΔ 11 χΑω
Θερμοκρασία: 29°C
Δείκτης Δυσφορίας: 29°C
Σημ. Δρόσου: 17°C
Υγρασία: 48%
Βαρόμετρο: 1019 hPa
Σύννεφα: Νεφοσκεπής
Ορατότητα: 10 χλμ
Ανάλυση νέφωσης: Νεφοσκεπής 1463μ
2020/09/09 10:35 1363 091035Z 29206KT 9999 OVC048 29/17 Q1019
(Ι.Μ.Σ.)  Μαραθώνας  (Σταθμός:1168)
Μαραθώνας - Α. Αττική - Αττική
Γ.Πλάτ: 38.12 - Γ.Μήκ: 24.00 - Υψόμ: 3μ
Απόσταση από το Vouhead Weather: (ΝΝΑ) 282χλμ
Ενημερώθηκε: 20/12/2021 00:51
ΜΗ ΠΡΟΣΦΑΤΟ METAR
Κυρίως νεφελώδης
Κυρίως νεφελώδης
 Άνεμος από ΒΔ
Άνεμος: ΒΔ 2 χΑω
Θερμοκρασία: 4°C
Σημ. Δρόσου: 0°C
Υγρασία: 75%
Βαρόμετρο: 1018 hPa
Σύννεφα: Κυρίως νεφελώδης
Ορατότητα: 9 χλμ
Ανάλυση νέφωσης: Κυρίως νεφελώδης 488μ
2021/12/19 22:51 1168 192251Z 31501KT 9000 BKN016 04/00 Q1018
 
(Ε.Α.Α.)  LG** - Γάιος  (Σταθμός:1332)
Παξοί - Κέρκυρα - Ιόνιοι Νήσοι
Γ.Πλάτ: 39.20 - Γ.Μήκ: 20.18 - Υψόμ: 80μ
Απόσταση από το Vouhead Weather: (ΔΝΔ) 283χλμ
Ενημερώθηκε: 08/05/2022 00:51
ΜΗ ΠΡΟΣΦΑΤΟ METAR
Διάσπαρτα νέφη
Διάσπαρτα νέφη
 Άνεμος από calm
Άνεμος: Απνοια
Θερμοκρασία: 16°C
Σημ. Δρόσου: 13°C
Υγρασία: 83%
Βαρόμετρο: 1017 hPa
Σύννεφα: Διάσπαρτα νέφη
Ορατότητα: 7 χλμ
Ανάλυση νέφωσης: Διάσπαρτα νέφη 335μ
2022/05/07 21:51 1332 072151Z 00000KT 7000 FEW011 16/13 Q1017
(Ι.Μ.Σ.)  Νέα Ερυθραία  (Σταθμός:1244)
Νέα Ερυθραία - Β. Αθήνα - Αττική
Γ.Πλάτ: 38.10 - Γ.Μήκ: 23.81 - Υψόμ: 285μ
Απόσταση από το Vouhead Weather: (ΝΝΑ) 284χλμ
Ενημερώθηκε: 07/11/2016 14:19
ΜΗ ΠΡΟΣΦΑΤΟ METAR
Νεφοσκεπής
Νεφοσκεπής
 Άνεμος από calm
Άνεμος: Απνοια
Θερμοκρασία: 20°C
Σημ. Δρόσου: 15°C
Υγρασία: 73%
Βαρόμετρο: 1015 hPa
Σύννεφα: Νεφοσκεπής
Ορατότητα: 8 χλμ
Ανάλυση νέφωσης: Νεφοσκεπής 610μ
2016/11/07 12:19 1244 071219Z 00000KT 8000 OVC020 20/15 Q1015
 
(Ι.Μ.Σ.)  Ρέα  (Σταθμός:1083)
Διόνυσος - Α. Αττική - Αττική
Γ.Πλάτ: 38.10 - Γ.Μήκ: 23.87 - Υψόμ: 450μ
Απόσταση από το Vouhead Weather: (ΝΝΑ) 285χλμ
Ενημερώθηκε: 09/02/2020 15:19
ΜΗ ΠΡΟΣΦΑΤΟ METAR
Διάσπαρτα νέφη
Διάσπαρτα νέφη
 Άνεμος από calm
Άνεμος: Απνοια
Θερμοκρασία: 7°C
Σημ. Δρόσου: 3°C
Υγρασία: 76%
Βαρόμετρο: 1032 hPa
Σύννεφα: Διάσπαρτα νέφη
Ορατότητα: 9 χλμ
Ανάλυση νέφωσης: Διάσπαρτα νέφη 518μ
2020/02/09 13:19 1083 091319Z 00000KT 9000 FEW017 07/03 Q1032
(Ε.Α.Α.)  LGJ2 - Γουβιά  (Σταθμός:1292)
Κέρκυρα - Κέρκυρα - Ιόνιοι Νήσοι
Γ.Πλάτ: 39.65 - Γ.Μήκ: 19.85 - Υψόμ: 5μ
Απόσταση από το Vouhead Weather: (ΔΝΔ) 286χλμ
Ενημερώθηκε: 02/11/2017 14:04
ΜΗ ΠΡΟΣΦΑΤΟ METAR
Διάσπαρτα νέφη
Διάσπαρτα νέφη
 Άνεμος από ΒΑ
Άνεμος: ΒΑ 2 χΑω
Θερμοκρασία: 19°C
Σημ. Δρόσου: 13°C
Υγρασία: 68%
Βαρόμετρο: 1019 hPa
Σύννεφα: Διάσπαρτα νέφη
Ορατότητα: 9 χλμ
Ανάλυση νέφωσης: Διάσπαρτα νέφη 701μ
2017/11/02 12:04 1292 021204Z 04501KT 9000 FEW023 19/13 Q1019
 
(Ι.Μ.Σ.)  Σκεπαστό  (Σταθμός:1229)
Καλάβρυτα - Αχαΐα - Δ. Ελλάδα
Γ.Πλάτ: 38.05 - Γ.Μήκ: 22.07 - Υψόμ: 850μ
Απόσταση από το Vouhead Weather: (ΝΝΔ) 289χλμ
Ενημερώθηκε: 14/07/2017 10:19
ΜΗ ΠΡΟΣΦΑΤΟ METAR
Διάσπαρτα νέφη
Διάσπαρτα νέφη
 Άνεμος από Α
Άνεμος: Α 6 χΑω
Θερμοκρασία: 31°C
Δείκτης Δυσφορίας: 32°C
Σημ. Δρόσου: 17°C
Υγρασία: 43%
Βαρόμετρο: 1009 hPa
Σύννεφα: Διάσπαρτα νέφη
Ορατότητα: 10 χλμ
Ανάλυση νέφωσης: Διάσπαρτα νέφη 1737μ
2017/07/14 07:19 1229 140719Z 09003KT 9999 FEW057 31/17 Q1009
(Ε.Α.Α.)  LG** - Νέα Μάκρη  (Σταθμός:1366)
Μαραθώνας - Α. Αττική - Αττική
Γ.Πλάτ: 38.06 - Γ.Μήκ: 23.98 - Υψόμ: 90μ
Απόσταση από το Vouhead Weather: (ΝΝΑ) 290χλμ
Ενημερώθηκε: 02/11/2017 14:04
ΜΗ ΠΡΟΣΦΑΤΟ METAR
Διάσπαρτα νέφη
Διάσπαρτα νέφη
 Άνεμος από calm
Άνεμος: Απνοια
Θερμοκρασία: 17°C
Σημ. Δρόσου: 9°C
Υγρασία: 59%
Βαρόμετρο: 1020 hPa
Σύννεφα: Διάσπαρτα νέφη
Ορατότητα: 10 χλμ
Ανάλυση νέφωσης: Διάσπαρτα νέφη 975μ
2017/11/02 12:04 1366 021204Z 00000KT 9999 FEW032 17/09 Q1020
 
(Ι.Μ.Σ.)  Περιστέρι  (Σταθμός:1278)
Περιστέρι - Δ. Αθήνα - Αττική
Γ.Πλάτ: 38.01 - Γ.Μήκ: 23.70 - Υψόμ: 56μ
Απόσταση από το Vouhead Weather: (ΝΝΑ) 291χλμ
Ενημερώθηκε: 09/10/2017 00:19
ΜΗ ΠΡΟΣΦΑΤΟ METAR
Διάσπαρτα νέφη
Διάσπαρτα νέφη
 Άνεμος από Β
Άνεμος: Β 2 χΑω
Θερμοκρασία: 15°C
Σημ. Δρόσου: 12°C
Υγρασία: 82%
Βαρόμετρο: 1014 hPa
Σύννεφα: Διάσπαρτα νέφη
Ορατότητα: 7 χλμ
Ανάλυση νέφωσης: Διάσπαρτα νέφη 396μ
2017/10/08 21:19 1278 082119Z 36001KT 7000 FEW013 15/12 Q1014
(Ι.Μ.Σ.)  Αγία Παρασκευή  (Σταθμός:1256)
Αγία Παρασκευή - Β. Αθήνα - Αττική
Γ.Πλάτ: 38.02 - Γ.Μήκ: 23.83 - Υψόμ: 225μ
Απόσταση από το Vouhead Weather: (ΝΝΑ) 292χλμ
Ενημερώθηκε: 21/10/2017 21:04
ΜΗ ΠΡΟΣΦΑΤΟ METAR
Διάσπαρτα νέφη
Διάσπαρτα νέφη
 Άνεμος από ΔΝΔ
Άνεμος: ΔΝΔ 2 χΑω
Θερμοκρασία: 14°C
Σημ. Δρόσου: 9°C
Υγρασία: 72%
Βαρόμετρο: 1017 hPa
Σύννεφα: Διάσπαρτα νέφη
Ορατότητα: 9 χλμ
Ανάλυση νέφωσης: Διάσπαρτα νέφη 640μ
2017/10/21 18:04 1256 211804Z 24701KT 9000 FEW021 14/09 Q1017
 
(Ι.Μ.Σ.)  Νταού Πεντέλης  (Σταθμός:1140)
Πεντέλη - Β. Αθήνα - Αττική
Γ.Πλάτ: 38.04 - Γ.Μήκ: 23.94 - Υψόμ: 295μ
Απόσταση από το Vouhead Weather: (ΝΝΑ) 293χλμ
Ενημερώθηκε: 27/12/2019 11:19
ΜΗ ΠΡΟΣΦΑΤΟ METAR
Διάσπαρτα νέφη
Διάσπαρτα νέφη
 Άνεμος από calm
Άνεμος: Απνοια
Θερμοκρασία: 6°C
Σημ. Δρόσου: 5°C
Υγρασία: 93%
Βαρόμετρο: 1019 hPa
Σύννεφα: Διάσπαρτα νέφη
Ορατότητα: 6 χλμ
Ανάλυση νέφωσης: Διάσπαρτα νέφη 1524μ
2019/12/27 09:19 1140 270919Z 00000KT 6000 FEW050 06/05 Q1019
(Ε.Α.Α.)  LGB9 - Αθήνα(Γκάζι)  (Σταθμός:1401)
Αθήνα - Κ. Αθήνα - Αττική
Γ.Πλάτ: 37.98 - Γ.Μήκ: 23.72 - Υψόμ: 50μ
Απόσταση από το Vouhead Weather: (ΝΝΑ) 294χλμ
Ενημερώθηκε: 02/11/2017 14:04
ΜΗ ΠΡΟΣΦΑΤΟ METAR
Διάσπαρτα νέφη
Διάσπαρτα νέφη
 Άνεμος από Β
Άνεμος: Β 11 χΑω
Θερμοκρασία: 14°C
Σημ. Δρόσου: 5°C
Υγρασία: 55%
Βαρόμετρο: 1020 hPa
Σύννεφα: Διάσπαρτα νέφη
Ορατότητα: 10 χλμ
Ανάλυση νέφωσης: Διάσπαρτα νέφη 1097μ
2017/11/02 12:04 1401 021204Z 36006KT 9999 FEW036 14/05 Q1020
 
(S.R.F.)  Βαθιά Λάκκα  (Σταθμός:1328)
(Χιονοδρομικό Κέντρο)
Καλάβρυτα - Αχαΐα - Δ. Ελλάδα
Γ.Πλάτ: 37.97 - Γ.Μήκ: 22.20 - Υψόμ: 1750μ
Απόσταση από το Vouhead Weather: (ΝΝΔ) 295χλμ
Ενημερώθηκε: 02/11/2017 14:04
ΜΗ ΠΡΟΣΦΑΤΟ METAR
Μερικώς νεφελώδης
Μερικώς νεφελώδης
 Άνεμος από ΒΔ
Άνεμος: ΒΔ 4 χΑω
Θερμοκρασία: 15°C
Σημ. Δρόσου: 7°C
Υγρασία: 59%
Βαρόμετρο: 1021 hPa
Σύννεφα: Μερικώς νεφελώδης
Ορατότητα: 10 χλμ
Ανάλυση νέφωσης: Μερικώς νεφελώδης 1006μ
2017/11/02 12:04 1328 021204Z 31502KT 9999 SCT033 15/07 Q1021
(Ι.Μ.Σ.)  Πειραιάς  (Σταθμός:1223)
Πειραιάς - Πειραιάς - Αττική
Γ.Πλάτ: 37.93 - Γ.Μήκ: 23.64 - Υψόμ: 65μ
Απόσταση από το Vouhead Weather: (ΝΝΑ) 298χλμ
Ενημερώθηκε: 01/11/2017 15:49
ΜΗ ΠΡΟΣΦΑΤΟ METAR
Μερικώς νεφελώδης
Μερικώς νεφελώδης
 Άνεμος από ΒΒΔ
Άνεμος: ΒΒΔ 7 χΑω
Θερμοκρασία: 13°C
Σημ. Δρόσου: 6°C
Υγρασία: 63%
Βαρόμετρο: 1023 hPa
Σύννεφα: Μερικώς νεφελώδης
Ορατότητα: 10 χλμ
Ανάλυση νέφωσης: Μερικώς νεφελώδης 853μ
2017/11/01 13:49 1223 011349Z 33704KT 9999 SCT028 13/06 Q1023
 
(Ι.Μ.Σ.)  Σαλαμίνα  (Σταθμός:1358)
Σαλαμίνα - Νησιά - Αττική
Γ.Πλάτ: 37.88 - Γ.Μήκ: 23.46 - Υψόμ: 20μ
Απόσταση από το Vouhead Weather: (ΝΝΑ) 300χλμ
Ενημερώθηκε: 03/07/2015 21:20
ΜΗ ΠΡΟΣΦΑΤΟ METAR
Αίθριος
Αίθριος
 Άνεμος από calm
Άνεμος: Απνοια
Θερμοκρασία: 28°C
Δείκτης Δυσφορίας: 28°C
Σημ. Δρόσου: 15°C
Υγρασία: 45%
Βαρόμετρο: 1017 hPa
Σύννεφα: Αίθριος
Ορατότητα: 10 χλμ
2015/07/03 18:20 1358 031820Z 00000KT 9999 SKC 28/15 Q1017
(Ε.Α.Α.)  LGG2 - Σπάτα  (Σταθμός:1204)
Σπάτα Αρτέμιδα - Α. Αττική - Αττική
Γ.Πλάτ: 37.97 - Γ.Μήκ: 23.92 - Υψόμ: 144μ
Απόσταση από το Vouhead Weather: (ΝΝΑ) 301χλμ
Ενημερώθηκε: 02/11/2017 14:04
ΜΗ ΠΡΟΣΦΑΤΟ METAR
Διάσπαρτα νέφη
Διάσπαρτα νέφη
 Άνεμος από ΑΒΑ
Άνεμος: ΑΒΑ 7 χΑω
Θερμοκρασία: 17°C
Σημ. Δρόσου: 9°C
Υγρασία: 59%
Βαρόμετρο: 1019 hPa
Σύννεφα: Διάσπαρτα νέφη
Ορατότητα: 10 χλμ
Ανάλυση νέφωσης: Διάσπαρτα νέφη 1036μ
2017/11/02 12:04 1204 021204Z 06704KT 9999 FEW034 17/09 Q1019
 
(Ε.Α.Α.)  LG** - Πρίνια(Κάβο Ντόρο)  (Σταθμός:1394)
Κάρυστος - Εύβοια - Κ. Ελλάδα
Γ.Πλάτ: 38.14 - Γ.Μήκ: 24.58 - Υψόμ: 386μ
Απόσταση από το Vouhead Weather: (ΝΝΑ) 303χλμ
Ενημερώθηκε: 08/05/2022 00:51
ΜΗ ΠΡΟΣΦΑΤΟ METAR
Μερικώς νεφελώδης
Μερικώς νεφελώδης
 Άνεμος από Β
Άνεμος: Β 17 χΑω
Θερμοκρασία: 12°C
Σημ. Δρόσου: 10°C
Υγρασία: 88%
Βαρόμετρο: 1017 hPa
Σύννεφα: Μερικώς νεφελώδης
Ορατότητα: 7 χλμ
Ανάλυση νέφωσης: Μερικώς νεφελώδης 335μ
2022/05/07 21:51 1394 072151Z 36009KT 7000 SCT011 12/10 Q1017
(Ε.Α.Α.)  LG92 - Λάππας  (Σταθμός:1099)
Δ. Αχαΐα - Αχαΐα - Δ. Ελλάδα
Γ.Πλάτ: 38.14 - Γ.Μήκ: 21.38 - Υψόμ: 15μ
Απόσταση από το Vouhead Weather: (ΝΝΔ) 305χλμ
Ενημερώθηκε: 02/11/2017 14:04
ΜΗ ΠΡΟΣΦΑΤΟ METAR
Διάσπαρτα νέφη
Διάσπαρτα νέφη
 Άνεμος από Β
Άνεμος: Β 4 χΑω
Θερμοκρασία: 19°C
Σημ. Δρόσου: 11°C
Υγρασία: 60%
Βαρόμετρο: 1018 hPa
Σύννεφα: Διάσπαρτα νέφη
Ορατότητα: 9 χλμ
Ανάλυση νέφωσης: Διάσπαρτα νέφη 884μ
2017/11/02 12:04 1099 021204Z 36002KT 9000 FEW029 19/11 Q1018
 
(Ε.Α.Α.)  LGE1 - Νεμέα  (Σταθμός:1181)
Νεμέα - Κορινθία - Πελοπόννησος
Γ.Πλάτ: 37.78 - Γ.Μήκ: 22.68 - Υψόμ: 290μ
Απόσταση από το Vouhead Weather: (Ν) 306χλμ
Ενημερώθηκε: 02/11/2017 14:04
ΜΗ ΠΡΟΣΦΑΤΟ METAR
Διάσπαρτα νέφη
Διάσπαρτα νέφη
 Άνεμος από Α
Άνεμος: Α 6 χΑω
Θερμοκρασία: 17°C
Σημ. Δρόσου: 10°C
Υγρασία: 64%
Βαρόμετρο: 1019 hPa
Σύννεφα: Διάσπαρτα νέφη
Ορατότητα: 10 χλμ
Ανάλυση νέφωσης: Διάσπαρτα νέφη 884μ
2017/11/02 12:04 1181 021204Z 09003KT 9999 FEW029 17/10 Q1019
(Ι.Μ.Σ.)  Πόρτο Ράφτη  (Σταθμός:1190)
Μαρκόπουλο Μεσογαία - Α. Αττική - Αττική
Γ.Πλάτ: 37.86 - Γ.Μήκ: 24.03 - Υψόμ: 36μ
Απόσταση από το Vouhead Weather: (ΝΝΑ) 311χλμ
Ενημερώθηκε: 02/11/2017 14:04
ΜΗ ΠΡΟΣΦΑΤΟ METAR
Διάσπαρτα νέφη
Διάσπαρτα νέφη
 Άνεμος από Β
Άνεμος: Β 9 χΑω
Θερμοκρασία: 15°C
Σημ. Δρόσου: 7°C
Υγρασία: 59%
Βαρόμετρο: 1018 hPa
Σύννεφα: Διάσπαρτα νέφη
Ορατότητα: 10 χλμ
Ανάλυση νέφωσης: Διάσπαρτα νέφη 914μ
2017/11/02 12:04 1190 021204Z 36005KT 9999 FEW030 15/07 Q1018
 
(Ε.Α.Α.)  LGB0 - Ιθάκη  (Σταθμός:1147)
Ιθάκη - Ιθάκη - Ιόνιοι Νήσοι
Γ.Πλάτ: 38.36 - Γ.Μήκ: 20.72 - Υψόμ: 10μ
Απόσταση από το Vouhead Weather: (ΝΝΔ) 312χλμ
Ενημερώθηκε: 08/05/2022 00:51
ΜΗ ΠΡΟΣΦΑΤΟ METAR
Αίθριος
Αίθριος
 Άνεμος από calm
Άνεμος: Απνοια
Θερμοκρασία: 17°C
Σημ. Δρόσου: 12°C
Υγρασία: 73%
Βαρόμετρο: 1016 hPa
Σύννεφα: Αίθριος
Ορατότητα: 8 χλμ
2022/05/07 21:51 1147 072151Z 00000KT 8000 SKC 17/12 Q1016
(Ι.Μ.Σ.)  Βάρκιζα  (Σταθμός:1336)
Βάρη Βούλα Βουλιαγμένη - Α. Αττική - Αττική
Γ.Πλάτ: 37.82 - Γ.Μήκ: 23.80 - Υψόμ: 15μ
Απόσταση από το Vouhead Weather: (ΝΝΑ) 313χλμ
Ενημερώθηκε: 21/07/2020 11:50
ΜΗ ΠΡΟΣΦΑΤΟ METAR
Αίθριος
Αίθριος
 Άνεμος από ΑΒΑ
Άνεμος: ΑΒΑ 9 χΑω
Θερμοκρασία: 30°C
Δείκτης Δυσφορίας: 31°C
Σημ. Δρόσου: 18°C
Υγρασία: 49%
Βαρόμετρο: 1015 hPa
Σύννεφα: Αίθριος
Ορατότητα: 10 χλμ
2020/07/21 08:50 1336 210850Z 06705KT 9999 SKC 30/18 Q1015
 
(Ι.Μ.Σ.)  Κερατέα  (Σταθμός:1071)
(PowerTeamz)
Λαυρεωτική - Α. Αττική - Αττική
Γ.Πλάτ: 37.81 - Γ.Μήκ: 23.98 - Υψόμ: 229μ
Απόσταση από το Vouhead Weather: (ΝΝΑ) 318χλμ
Ενημερώθηκε: 22/05/2013 22:44
ΜΗ ΠΡΟΣΦΑΤΟ METAR
Νεφοσκεπής
Νεφοσκεπής
 Άνεμος από Α
Άνεμος: Α 2 χΑω
Θερμοκρασία: 24°C
Σημ. Δρόσου: 11°C
Υγρασία: 44%
Βαρόμετρο: 1006 hPa
Σύννεφα: Νεφοσκεπής
Ορατότητα: 10 χλμ
Ανάλυση νέφωσης: Νεφοσκεπής 1524μ
2013/05/22 19:44 1071 221944Z 09001KT 9999 OVC050 24/11 Q1006
(Ε.Α.Α.)  LGD6 - Λαύριο  (Σταθμός:1167)
Λαυρεωτική - Α. Αττική - Αττική
Γ.Πλάτ: 37.71 - Γ.Μήκ: 24.06 - Υψόμ: 3μ
Απόσταση από το Vouhead Weather: (ΝΝΑ) 330χλμ
Ενημερώθηκε: 08/05/2022 00:51
ΜΗ ΠΡΟΣΦΑΤΟ METAR
Αίθριος
Αίθριος
 Άνεμος από ΒΒΑ
Άνεμος: ΒΒΑ 9 χΑω
Θερμοκρασία: 17°C
Σημ. Δρόσου: 10°C
Υγρασία: 64%
Βαρόμετρο: 1016 hPa
Σύννεφα: Αίθριος
Ορατότητα: 9 χλμ
2022/05/07 21:51 1167 072151Z 02205KT 9000 SKC 17/10 Q1016
 
(Ι.Μ.Σ.)  Ναύπλιο  (Σταθμός:1356)
Ναύπλιο - Αργολίδα - Πελοπόννησος
Γ.Πλάτ: 37.58 - Γ.Μήκ: 22.82 - Υψόμ: 14μ
Απόσταση από το Vouhead Weather: (Ν) 332χλμ
Ενημερώθηκε: 19/05/2022 08:06
ΜΗ ΠΡΟΣΦΑΤΟ METAR
Νεφοσκεπής
Νεφοσκεπής
 Άνεμος από ΝΝΔ
Άνεμος: ΝΝΔ 7 χΑω
Θερμοκρασία: 14°C
Σημ. Δρόσου: 8°C
Υγρασία: 67%
Βαρόμετρο: 1024 hPa
Σύννεφα: Νεφοσκεπής
Ορατότητα: 9 χλμ
Ανάλυση νέφωσης: Νεφοσκεπής 732μ
2022/05/19 05:06 1356 190506Z 20204KT 9000 OVC024 14/08 Q1024
(Ε.Α.Α.)  LGK4 - Ελάτη  (Σταθμός:1312)
Γορτυνία - Αρκαδία - Πελοπόννησος
Γ.Πλάτ: 37.63 - Γ.Μήκ: 22.15 - Υψόμ: 1207μ
Απόσταση από το Vouhead Weather: (ΝΝΔ) 334χλμ
Ενημερώθηκε: 28/02/2014 10:35
ΜΗ ΠΡΟΣΦΑΤΟ METAR
Ασθενής βροχή, Νεφοσκεπής
Ασθενής βροχή, Νεφοσκεπής
 Άνεμος από calm
Άνεμος: Απνοια
Θερμοκρασία: 3°C
Σημ. Δρόσου: 2°C
Υγρασία: 93%
Βαρόμετρο: 1021 hPa
Περίληψη: Ασθενής βροχή
Σύννεφα: Νεφοσκεπής
Ορατότητα: 8 χλμ
Ανάλυση νέφωσης: Νεφοσκεπής 914μ
2014/02/28 08:35 1312 280835Z 00000KT 8000 -RA OVC030 03/02 Q1021
 
(Ε.Α.Α.)  LGC3 - Φολόη(Λάλας)  (Σταθμός:1152)
Αρχαία Ολυμπία - Ηλεία - Δ. Ελλάδα
Γ.Πλάτ: 37.71 - Γ.Μήκ: 21.72 - Υψόμ: 600μ
Απόσταση από το Vouhead Weather: (ΝΝΔ) 335χλμ
Ενημερώθηκε: 19/05/2022 03:06
ΜΗ ΠΡΟΣΦΑΤΟ METAR
Αίθριος
Αίθριος
 Άνεμος από ΔΒΔ
Άνεμος: ΔΒΔ 11 χΑω
Θερμοκρασία: 20°C
Σημ. Δρόσου: 14°C
Υγρασία: 69%
Βαρόμετρο: 1014 hPa
Σύννεφα: Αίθριος
Ορατότητα: 9 χλμ
2022/05/19 00:06 1152 190006Z 29206KT 9000 SKC 20/14 Q1014
(Ι.Μ.Σ.)  Φαρακλάτα  (Σταθμός:1230)
Κεφαλονιά - Κεφαλονιά - Ιόνιοι Νήσοι
Γ.Πλάτ: 38.20 - Γ.Μήκ: 20.52 - Υψόμ: 242μ
Απόσταση από το Vouhead Weather: (ΝΝΔ) 337χλμ
Ενημερώθηκε: 15/01/2018 09:23
ΜΗ ΠΡΟΣΦΑΤΟ METAR
Καταιγίδα, Μερικώς νεφελώδης
Καταιγίδα, Μερικώς νεφελώδης
 Άνεμος από Β
Άνεμος: Β 4 χΑω
Θερμοκρασία: 9°C
Σημ. Δρόσου: 8°C
Υγρασία: 94%
Βαρόμετρο: 1025 hPa
Περίληψη: Καταιγίδα
Σύννεφα: Μερικώς νεφελώδης
Ορατότητα: 7 χλμ
Ανάλυση νέφωσης: Μερικώς νεφελώδης 2134μ
2018/01/15 07:23 1230 150723Z 36002KT 7000 TS SCT070 09/08 Q1025
 
(Ε.Α.Α.)  LG52 - Αμαλιάδα  (Σταθμός:1051)
Ήλιδα - Ηλεία - Δ. Ελλάδα
Γ.Πλάτ: 37.80 - Γ.Μήκ: 21.33 - Υψόμ: 26μ
Απόσταση από το Vouhead Weather: (ΝΝΔ) 338χλμ
Ενημερώθηκε: 09/06/2017 11:48
ΜΗ ΠΡΟΣΦΑΤΟ METAR
Διάσπαρτα νέφη
Διάσπαρτα νέφη
 Άνεμος από Δ
Άνεμος: Δ 4 χΑω
Θερμοκρασία: 26°C
Σημ. Δρόσου: 21°C
Υγρασία: 74%
Βαρόμετρο: 1013 hPa
Σύννεφα: Διάσπαρτα νέφη
Ορατότητα: 8 χλμ
Ανάλυση νέφωσης: Διάσπαρτα νέφη 701μ
2017/06/09 08:48 1051 090848Z 27002KT 8000 FEW023 26/21 Q1013
(Ε.Α.Α.)  LG83 - Τρίπολη  (Σταθμός:1062)
Τρίπολη - Αρκαδία - Πελοπόννησος
Γ.Πλάτ: 37.51 - Γ.Μήκ: 22.37 - Υψόμ: 640μ
Απόσταση από το Vouhead Weather: (ΝΝΔ) 342χλμ
Ενημερώθηκε: 02/11/2017 14:04
ΜΗ ΠΡΟΣΦΑΤΟ METAR
Διάσπαρτα νέφη
Διάσπαρτα νέφη
 Άνεμος από calm
Άνεμος: Απνοια
Θερμοκρασία: 17°C
Σημ. Δρόσου: 10°C
Υγρασία: 64%
Βαρόμετρο: 1019 hPa
Σύννεφα: Διάσπαρτα νέφη
Ορατότητα: 10 χλμ
Ανάλυση νέφωσης: Διάσπαρτα νέφη 853μ
2017/11/02 12:04 1062 021204Z 00000KT 9999 FEW028 17/10 Q1019
 
(Ι.Μ.Σ.)  Σπαρτιά  (Σταθμός:1373)
Κεφαλονιά - Κεφαλονιά - Ιόνιοι Νήσοι
Γ.Πλάτ: 38.11 - Γ.Μήκ: 20.56 - Υψόμ: 149μ
Απόσταση από το Vouhead Weather: (ΝΝΔ) 343χλμ
Ενημερώθηκε: 31/10/2018 02:04
ΜΗ ΠΡΟΣΦΑΤΟ METAR
Αίθριος
Αίθριος
 Άνεμος από ΝΑ
Άνεμος: ΝΑ 2 χΑω
Θερμοκρασία: 21°C
Σημ. Δρόσου: 19°C
Υγρασία: 88%
Βαρόμετρο: 1006 hPa
Σύννεφα: Αίθριος
Ορατότητα: 7 χλμ
2018/10/31 00:04 1373 310004Z 13501KT 7000 SKC 21/19 Q1006
(Ε.Α.Α.)  LGB3 - Αρχαία Ολυμπία  (Σταθμός:1141)
(Αρχαιολογικό Μουσείο Ολυμπίας)
Αρχαία Ολυμπία - Ηλεία - Δ. Ελλάδα
Γ.Πλάτ: 37.62 - Γ.Μήκ: 21.66 - Υψόμ: 45μ
Απόσταση από το Vouhead Weather: (ΝΝΔ) 344χλμ
Ενημερώθηκε: 07/12/2016 14:34
ΜΗ ΠΡΟΣΦΑΤΟ METAR
Νεφοσκεπής
Νεφοσκεπής
 Άνεμος από calm
Άνεμος: Απνοια
Θερμοκρασία: 17°C
Σημ. Δρόσου: 13°C
Υγρασία: 77%
Βαρόμετρο: 1026 hPa
Σύννεφα: Νεφοσκεπής
Ορατότητα: 8 χλμ
Ανάλυση νέφωσης: Νεφοσκεπής 488μ
2016/12/07 12:34 1141 071234Z 00000KT 8000 OVC016 17/13 Q1026
 
(Ι.Μ.Σ.)  Πύργος(Νεάπολη)  (Σταθμός:1254)
Πύργος - Ηλεία - Δ. Ελλάδα
Γ.Πλάτ: 37.67 - Γ.Μήκ: 21.45 - Υψόμ: 14μ
Απόσταση από το Vouhead Weather: (ΝΝΔ) 345χλμ
Ενημερώθηκε: 31/10/2018 03:04
ΜΗ ΠΡΟΣΦΑΤΟ METAR
Νεφοσκεπής
Νεφοσκεπής
 Άνεμος από calm
Άνεμος: Απνοια
Θερμοκρασία: 19°C
Σημ. Δρόσου: 16°C
Υγρασία: 83%
Βαρόμετρο: 1021 hPa
Σύννεφα: Νεφοσκεπής
Ορατότητα: 7 χλμ
Ανάλυση νέφωσης: Νεφοσκεπής 366μ
2018/10/31 01:04 1254 310104Z 00000KT 7000 OVC012 19/16 Q1021
(Ε.Α.Α.)  LGJ5 - Κατάκολο  (Σταθμός:1291)
Πύργος - Ηλεία - Δ. Ελλάδα
Γ.Πλάτ: 37.65 - Γ.Μήκ: 21.32 - Υψόμ: 2μ
Απόσταση από το Vouhead Weather: (ΝΝΔ) 354χλμ
Ενημερώθηκε: 05/01/2017 22:23
ΜΗ ΠΡΟΣΦΑΤΟ METAR
Καταιγίδα, Νεφοσκεπής
Καταιγίδα, Νεφοσκεπής
 Άνεμος από ΝΝΔ
Άνεμος: ΝΝΔ 24 χΑω
Θερμοκρασία: 16°C
Σημ. Δρόσου: 12°C
Υγρασία: 77%
Βαρόμετρο: 1001 hPa
Περίληψη: Καταιγίδα
Σύννεφα: Νεφοσκεπής
Ορατότητα: 8 χλμ
Ανάλυση νέφωσης: Νεφοσκεπής 457μ
2017/01/05 20:23 1291 052023Z 20213KT 8000 TS OVC015 16/12 Q1001
 
(Ε.Α.Α.)  LGM7 - Κρανίδι  (Σταθμός:1342)
(Γενικό Λύκειο Κρανιδίου)
Ερμιονίδα - Αργολίδα - Πελοπόννησος
Γ.Πλάτ: 37.38 - Γ.Μήκ: 23.16 - Υψόμ: 110μ
Απόσταση από το Vouhead Weather: (Ν) 355χλμ
Ενημερώθηκε: 02/11/2017 14:04
ΜΗ ΠΡΟΣΦΑΤΟ METAR
Διάσπαρτα νέφη
Διάσπαρτα νέφη
 Άνεμος από Ν
Άνεμος: Ν 4 χΑω
Θερμοκρασία: 18°C
Σημ. Δρόσου: 10°C
Υγρασία: 60%
Βαρόμετρο: 1022 hPa
Σύννεφα: Διάσπαρτα νέφη
Ορατότητα: 10 χλμ
Ανάλυση νέφωσης: Διάσπαρτα νέφη 945μ
2017/11/02 12:04 1342 021204Z 18002KT 9999 FEW031 18/10 Q1022
(Ι.Μ.Σ.)  Ζάκυνθος  (Σταθμός:1308)
Ζάκυνθος - Ζάκυνθος - Ιόνιοι Νήσοι
Γ.Πλάτ: 37.77 - Γ.Μήκ: 20.90 - Υψόμ: 5μ
Απόσταση από το Vouhead Weather: (ΝΝΔ) 357χλμ
Ενημερώθηκε: 11/02/2016 19:20
ΜΗ ΠΡΟΣΦΑΤΟ METAR
Μερικώς νεφελώδης
Μερικώς νεφελώδης
 Άνεμος από ΝΔ
Άνεμος: ΝΔ 20 χΑω
Θερμοκρασία: 16°C
Σημ. Δρόσου: 13°C
Υγρασία: 83%
Βαρόμετρο: 1013 hPa
Σύννεφα: Μερικώς νεφελώδης
Ορατότητα: 7 χλμ
Ανάλυση νέφωσης: Μερικώς νεφελώδης 396μ
2016/02/11 17:20 1308 111720Z 22511KT 7000 SCT013 16/13 Q1013
 
(Ε.Α.Α.)  LGN4 - Σαρακηνάδο  (Σταθμός:1368)
Ζάκυνθος - Ζάκυνθος - Ιόνιοι Νήσοι
Γ.Πλάτ: 37.78 - Γ.Μήκ: 20.85 - Υψόμ: 10μ
Απόσταση από το Vouhead Weather: (ΝΝΔ) 360χλμ
Ενημερώθηκε: 02/11/2017 14:04
ΜΗ ΠΡΟΣΦΑΤΟ METAR
Κυρίως νεφελώδης
Κυρίως νεφελώδης
 Άνεμος από calm
Άνεμος: Απνοια
Θερμοκρασία: 19°C
Σημ. Δρόσου: 13°C
Υγρασία: 68%
Βαρόμετρο: 1019 hPa
Σύννεφα: Κυρίως νεφελώδης
Ορατότητα: 9 χλμ
Ανάλυση νέφωσης: Κυρίως νεφελώδης 792μ
2017/11/02 12:04 1368 021204Z 00000KT 9000 BKN026 19/13 Q1019
(Ε.Α.Α.)  LG86 - Ζαχάρω  (Σταθμός:1053)
Ζαχάρω - Ηλεία - Δ. Ελλάδα
Γ.Πλάτ: 37.48 - Γ.Μήκ: 21.68 - Υψόμ: 5μ
Απόσταση από το Vouhead Weather: (ΝΝΔ) 361χλμ
Ενημερώθηκε: 22/10/2016 13:19
ΜΗ ΠΡΟΣΦΑΤΟ METAR
Καταιγίδα, Έντονη βροχή, Νεφοσκεπής
Καταιγίδα, Έντονη βροχή, Νεφοσκεπής
 Άνεμος από ΒΑ
Άνεμος: ΒΑ 20 χΑω
Θερμοκρασία: 17°C
Σημ. Δρόσου: 16°C
Υγρασία: 94%
Βαρόμετρο: 1017 hPa
Περίληψη: Καταιγίδα, Έντονη βροχή
Σύννεφα: Νεφοσκεπής
Ορατότητα: 7 χλμ
Ανάλυση νέφωσης: Νεφοσκεπής 1219μ
2016/10/22 10:19 1053 221019Z 04511KT 7000 TS +RA OVC040 17/16 Q1017
 
(Ι.Μ.Σ.)  Ύδρα  (Σταθμός:1339)
Ύδρα - Νησιά - Αττική
Γ.Πλάτ: 37.34 - Γ.Μήκ: 23.47 - Υψόμ: 30μ
Απόσταση από το Vouhead Weather: (ΝΝΑ) 362χλμ
Ενημερώθηκε: 02/11/2017 14:04
ΜΗ ΠΡΟΣΦΑΤΟ METAR
Διάσπαρτα νέφη
Διάσπαρτα νέφη
 Άνεμος από ΒΑ
Άνεμος: ΒΑ 2 χΑω
Θερμοκρασία: 17°C
Σημ. Δρόσου: 9°C
Υγρασία: 59%
Βαρόμετρο: 1021 hPa
Σύννεφα: Διάσπαρτα νέφη
Ορατότητα: 10 χλμ
Ανάλυση νέφωσης: Διάσπαρτα νέφη 1006μ
2017/11/02 12:04 1339 021204Z 04501KT 9999 FEW033 17/09 Q1021
(Ι.Μ.Σ.)  Νεοχώρι  (Σταθμός:1233)
Μεγαλόπολη - Αρκαδία - Πελοπόννησος
Γ.Πλάτ: 37.18 - Γ.Μήκ: 22.23 - Υψόμ: 1175μ
Απόσταση από το Vouhead Weather: (ΝΝΔ) 381χλμ
Ενημερώθηκε: 19/05/2022 08:05
ΜΗ ΠΡΟΣΦΑΤΟ METAR
Κυρίως νεφελώδης
Κυρίως νεφελώδης
 Άνεμος από ΒΑ
Άνεμος: ΒΑ 2 χΑω
Θερμοκρασία: 7°C
Σημ. Δρόσου: 6°C
Υγρασία: 93%
Βαρόμετρο: 1017 hPa
Σύννεφα: Κυρίως νεφελώδης
Ορατότητα: 6 χλμ
Ανάλυση νέφωσης: Κυρίως νεφελώδης 1524μ
2022/05/19 05:05 1233 190505Z 04501KT 6000 BKN050 07/06 Q1017
 
(Ι.Μ.Σ.)  Νέδουσα  (Σταθμός:1037)
Καλαμάτα - Μεσσηνία - Πελοπόννησος
Γ.Πλάτ: 37.14 - Γ.Μήκ: 22.23 - Υψόμ: 712μ
Απόσταση από το Vouhead Weather: (ΝΝΔ) 385χλμ
Ενημερώθηκε: 19/05/2022 08:23
ΜΗ ΠΡΟΣΦΑΤΟ METAR
Μερικώς νεφελώδης
Μερικώς νεφελώδης
 Άνεμος από Α
Άνεμος: Α 17 χΑω
Θερμοκρασία: 11°C
Σημ. Δρόσου: 7°C
Υγρασία: 77%
Βαρόμετρο: 1019 hPa
Σύννεφα: Μερικώς νεφελώδης
Ορατότητα: 8 χλμ
Ανάλυση νέφωσης: Μερικώς νεφελώδης 518μ
2022/05/19 05:23 1037 190523Z 09009KT 8000 SCT017 11/07 Q1019
(Ε.Α.Α.)  LGF7 - Σπάρτη  (Σταθμός:1245)
Σπάρτη - Λακωνία - Πελοπόννησος
Γ.Πλάτ: 37.07 - Γ.Μήκ: 22.43 - Υψόμ: 204μ
Απόσταση από το Vouhead Weather: (ΝΝΔ) 391χλμ
Ενημερώθηκε: 02/11/2017 14:04
ΜΗ ΠΡΟΣΦΑΤΟ METAR
Μερικώς νεφελώδης
Μερικώς νεφελώδης
 Άνεμος από ΝΝΑ
Άνεμος: ΝΝΑ 4 χΑω
Θερμοκρασία: 17°C
Σημ. Δρόσου: 12°C
Υγρασία: 73%
Βαρόμετρο: 1022 hPa
Σύννεφα: Μερικώς νεφελώδης
Ορατότητα: 9 χλμ
Ανάλυση νέφωσης: Μερικώς νεφελώδης 640μ
2017/11/02 12:04 1245 021204Z 15702KT 9000 SCT021 17/12 Q1022
 
(Ι.Μ.Σ.)  Κορομηλιά  (Σταθμός:1038)
Μεσσήνη - Μεσσηνία - Πελοπόννησος
Γ.Πλάτ: 37.16 - Γ.Μήκ: 21.85 - Υψόμ: 509μ
Απόσταση από το Vouhead Weather: (ΝΝΔ) 392χλμ
Ενημερώθηκε: 19/05/2022 08:23
ΜΗ ΠΡΟΣΦΑΤΟ METAR
Νεφοσκεπής
Νεφοσκεπής
 Άνεμος από ΑΒΑ
Άνεμος: ΑΒΑ 7 χΑω
Θερμοκρασία: 13°C
Σημ. Δρόσου: 9°C
Υγρασία: 77%
Βαρόμετρο: 1018 hPa
Σύννεφα: Νεφοσκεπής
Ορατότητα: 8 χλμ
Ανάλυση νέφωσης: Νεφοσκεπής 549μ
2022/05/19 05:23 1038 190523Z 06704KT 8000 OVC018 13/09 Q1018
(Ι.Μ.Σ.)  Καλαμάτα  (Σταθμός:1054)
Καλαμάτα - Μεσσηνία - Πελοπόννησος
Γ.Πλάτ: 37.03 - Γ.Μήκ: 22.11 - Υψόμ: 18μ
Απόσταση από το Vouhead Weather: (ΝΝΔ) 399χλμ
Ενημερώθηκε: 19/05/2022 08:23
ΜΗ ΠΡΟΣΦΑΤΟ METAR
Κυρίως νεφελώδης
Κυρίως νεφελώδης
 Άνεμος από ΒΑ
Άνεμος: ΒΑ 13 χΑω
Θερμοκρασία: 19°C
Σημ. Δρόσου: 9°C
Υγρασία: 52%
Βαρόμετρο: 1015 hPa
Σύννεφα: Κυρίως νεφελώδης
Ορατότητα: 10 χλμ
Ανάλυση νέφωσης: Κυρίως νεφελώδης 1280μ
2022/05/19 05:23 1054 190523Z 04507KT 9999 BKN042 19/09 Q1015
 
(Ι.Μ.Σ.)  Ταΰγετος(Βουνό)  (Σταθμός:1061)
Καλαμάτα - Μεσσηνία - Πελοπόννησος
Γ.Πλάτ: 36.99 - Γ.Μήκ: 22.33 - Υψόμ: 1310μ
Απόσταση από το Vouhead Weather: (ΝΝΔ) 401χλμ
Ενημερώθηκε: 02/11/2017 14:04
ΜΗ ΠΡΟΣΦΑΤΟ METAR
Μερικώς νεφελώδης
Μερικώς νεφελώδης
 Άνεμος από ΝΑ
Άνεμος: ΝΑ 2 χΑω
Θερμοκρασία: 16°C
Σημ. Δρόσου: 15°C
Υγρασία: 94%
Βαρόμετρο: 1019 hPa
Σύννεφα: Μερικώς νεφελώδης
Ορατότητα: 6 χλμ
Ανάλυση νέφωσης: Μερικώς νεφελώδης 1524μ
2017/11/02 12:04 1061 021204Z 13501KT 6000 SCT050 16/15 Q1019
(Ι.Μ.Σ.)  Γαργαλιάνοι  (Σταθμός:1240)
Τριφυλία - Μεσσηνία - Πελοπόννησος
Γ.Πλάτ: 37.06 - Γ.Μήκ: 21.64 - Υψόμ: 300μ
Απόσταση από το Vouhead Weather: (ΝΝΔ) 404χλμ
Ενημερώθηκε: 04/10/2014 05:05
ΜΗ ΠΡΟΣΦΑΤΟ METAR
Μερικώς νεφελώδης
Μερικώς νεφελώδης
 Άνεμος από ΑΒΑ
Άνεμος: ΑΒΑ 2 χΑω
Θερμοκρασία: 18°C
Σημ. Δρόσου: 16°C
Υγρασία: 88%
Βαρόμετρο: 1013 hPa
Σύννεφα: Μερικώς νεφελώδης
Ορατότητα: 6 χλμ
Ανάλυση νέφωσης: Μερικώς νεφελώδης 1829μ
2014/10/04 02:05 1240 040205Z 06701KT 6000 SCT060 18/16 Q1013
 
(Ε.Α.Α.)  LGF8 - Μολάοι  (Σταθμός:1246)
Μονεμβασιά - Λακωνία - Πελοπόννησος
Γ.Πλάτ: 36.80 - Γ.Μήκ: 22.85 - Υψόμ: 128μ
Απόσταση από το Vouhead Weather: (Ν) 418χλμ
Ενημερώθηκε: 02/11/2017 14:04
ΜΗ ΠΡΟΣΦΑΤΟ METAR
Μερικώς νεφελώδης
Μερικώς νεφελώδης
 Άνεμος από ΝΝΑ
Άνεμος: ΝΝΑ 7 χΑω
Θερμοκρασία: 17°C
Σημ. Δρόσου: 11°C
Υγρασία: 68%
Βαρόμετρο: 1020 hPa
Σύννεφα: Μερικώς νεφελώδης
Ορατότητα: 9 χλμ
Ανάλυση νέφωσης: Μερικώς νεφελώδης 792μ
2017/11/02 12:04 1246 021204Z 15704KT 9000 SCT026 17/11 Q1020
(Ι.Μ.Σ.)  Πύλος  (Σταθμός:1396)
Πύλος Νέστορας - Μεσσηνία - Πελοπόννησος
Γ.Πλάτ: 36.91 - Γ.Μήκ: 21.70 - Υψόμ: 30μ
Απόσταση από το Vouhead Weather: (ΝΝΔ) 420χλμ
Ενημερώθηκε: 02/11/2017 13:19
ΜΗ ΠΡΟΣΦΑΤΟ METAR
Μερικώς νεφελώδης
Μερικώς νεφελώδης
 Άνεμος από Β
Άνεμος: Β 2 χΑω
Θερμοκρασία: 16°C
Σημ. Δρόσου: 14°C
Υγρασία: 88%
Βαρόμετρο: 1021 hPa
Σύννεφα: Μερικώς νεφελώδης
Ορατότητα: 7 χλμ
Ανάλυση νέφωσης: Μερικώς νεφελώδης 2134μ
2017/11/02 11:19 1396 021119Z 36001KT 7000 SCT070 16/14 Q1021
 
(Ε.Α.Α.)  LG56 - Μονεμβασιά  (Σταθμός:1056)
(Μονοβασία ή Μαλβάζια, ζωντανό μέρος της ιστορίας)
Μονεμβασιά - Λακωνία - Πελοπόννησος
Γ.Πλάτ: 36.73 - Γ.Μήκ: 23.04 - Υψόμ: 10μ
Απόσταση από το Vouhead Weather: (Ν) 430χλμ
Ενημερώθηκε: 02/11/2017 14:04
ΜΗ ΠΡΟΣΦΑΤΟ METAR
Μερικώς νεφελώδης
Μερικώς νεφελώδης
 Άνεμος από ΒΑ
Άνεμος: ΒΑ 11 χΑω
Θερμοκρασία: 17°C
Σημ. Δρόσου: 11°C
Υγρασία: 68%
Βαρόμετρο: 1021 hPa
Σύννεφα: Μερικώς νεφελώδης
Ορατότητα: 9 χλμ
Ανάλυση νέφωσης: Μερικώς νεφελώδης 732μ
2017/11/02 12:04 1056 021204Z 04506KT 9000 SCT024 17/11 Q1021
(Ε.Α.Α.)  LG** - Αγιος Νικόλαος  (Σταθμός:1142)
Μονεμβασιά - Λακωνία - Πελοπόννησος
Γ.Πλάτ: 36.48 - Γ.Μήκ: 23.10 - Υψόμ: 161μ
Απόσταση από το Vouhead Weather: (Ν) 454χλμ
Ενημερώθηκε: 02/11/2017 14:04
ΜΗ ΠΡΟΣΦΑΤΟ METAR
Μερικώς νεφελώδης
Μερικώς νεφελώδης
 Άνεμος από ΑΝΑ
Άνεμος: ΑΝΑ 11 χΑω
Θερμοκρασία: 16°C
Σημ. Δρόσου: 10°C
Υγρασία: 68%
Βαρόμετρο: 1019 hPa
Σύννεφα: Μερικώς νεφελώδης
Ορατότητα: 9 χλμ
Ανάλυση νέφωσης: Μερικώς νεφελώδης 701μ
2017/11/02 12:04 1142 021204Z 11206KT 9000 SCT023 16/10 Q1019
Πηγή Αναφορών METAR:  www.metar.gr
   Μην χρησιμοποιήσετε τα στοιχεία για αποφάσεις που αφορούν ζωές και πάσης φύσεως ιδιοκτησίες  
ΠΗΓΑΙΝΕΤΕ ΣΤΗΝ ΙΟΝΙΑ GO TO REA ΠΗΓΑΙΝΕΤΕ ΣΤΗΝ ΚΗΦΙΣΙΑ ΠΗΓΑΙΝΕΤΕ ΣΤΗΝ ΣΥΡΟ ΠΗΓΑΙΝΕΤΕ ΣΤΗΝ ΔΕΞΑΜΕΝΗ (BOLTEK) ΠΗΓΑΙΝΕΤΕ ΣΤΗΝ ΔΕΞΑΜΕΝΗ (LR) ΠΗΓΑΙΝΕΤΕ ΣΤΗΝ ΛΑΡΙΣΑ Γενική Γραμματεία Πολιτικής Προστασίας Ενιαίος Ευρωπαϊκός Αριθμός Έκτακτης Ανάγκης Βίντεο για το Καστελλόριζο(Μεγίστη) από τα αρχεία της ΕΡΤ Ιστοσελίδα Δήμου Μεγίστης Δείτε το μεγαλύτερο